Thunder radar more information blitzortung!


Radar de pluja more information rain snow radar


Visita la nostra xarxa de llocs de meteo:

Template documentation
and downloads

And another site



No particular awareness of the weather is required.    There are no Weather-warnings

Pagina Historial Weather Underground text

Diari Resum Juny 6, 2017 Unitats:  Imperial    Mètric   Tant
« Previous Dia
SegĂźent Dia »
Diari Setmana Mensual Anual Personalitzada
  Maxima: Minima: Media:
Temperatura: TemperatureC °F 17.0 °F 22.7 °F
Punt de rosada: DewpointC °F 10.6 °F 13.6 °F
Humitat: Humidity % 33 % 58 %
Wind Speed: WindSpeedKMH mph 0.0 mph 10.1 mph
RĂ fegues de vent: WindSpeedGustKMH mph - -
Vent:- - SSE
Pression baro: PressurehPa in 1010.7 in -
Precipitacions: 0.0 in    
Historical Graphs
 
 
Dades de taula per Juny 6, 2017
Temps Temperatura Punt de rosada Pression baro Vent Wind Speed RĂ fegues de vent Humitat Rainfall Rate (Hourly)
TemperatureC °F DewpointC °F PressurehPa in Calm     Humidity % HourlyPrecipMM in
00:01 17.5 °F 10.6 °F 1011.7 in SW 7.4 mph 7.4 mph 64 % 0.0 in
00:06 17.5 °F 10.6 °F 1011.7 in WSW 7.4 mph 7.4 mph 64 % 0.0 in
03:05 17.5 °F 12.2 °F 1010.7 in SW 3.2 mph 4.8 mph 71 % 0.0 in
03:15 18.0 °F 12.4 °F 1010.7 in SW 3.2 mph 4.8 mph 70 % 0.0 in
03:25 18.6 °F 12.8 °F 1010.7 in SW 1.6 mph 6.4 mph 69 % 0.0 in
03:35 19.0 °F 12.9 °F 1010.7 in SW 3.2 mph 4.8 mph 68 % 0.0 in
03:45 19.4 °F 13.6 °F 1010.7 in SW 3.2 mph 4.8 mph 69 % 0.0 in
03:55 19.5 °F 13.4 °F 1010.7 in SW 4.8 mph 6.4 mph 68 % 0.0 in
04:05 20.0 °F 13.4 °F 1010.7 in WSW 4.8 mph 6.4 mph 66 % 0.0 in
04:15 20.8 °F 14.2 °F 1011.7 in SW 4.8 mph 4.8 mph 66 % 0.0 in
04:25 21.1 °F 14.3 °F 1011.7 in SW 3.2 mph 6.4 mph 65 % 0.0 in
04:35 22.1 °F 14.7 °F 1011.7 in SSW 3.2 mph 3.2 mph 63 % 0.0 in
04:45 21.9 °F 14.8 °F 1011.7 in SW 3.2 mph 8.0 mph 64 % 0.0 in
04:55 21.9 °F 14.3 °F 1011.7 in WNW 3.2 mph 4.8 mph 62 % 0.0 in
05:05 22.2 °F 13.8 °F 1011.7 in NNE 4.8 mph 4.8 mph 59 % 0.0 in
05:15 22.6 °F 14.2 °F 1011.7 in ENE 3.2 mph 4.8 mph 59 % 0.0 in
05:25 23.0 °F 13.4 °F 1011.7 in East 3.2 mph 6.4 mph 55 % 0.0 in
10:33 23.6 °F 13.7 °F 1011.7 in East 7.4 mph 7.4 mph 54 % 0.0 in
10:38 23.5 °F 13.9 °F 1011.7 in NNE 6.4 mph 6.4 mph 55 % 0.0 in
10:43 23.3 °F 13.4 °F 1011.7 in East 5.8 mph 5.8 mph 54 % 0.0 in
10:48 23.6 °F 14.1 °F 1011.7 in NE 5.6 mph 5.6 mph 55 % 0.0 in
10:53 24.1 °F 13.9 °F 1011.7 in ESE 5.6 mph 5.6 mph 53 % 0.0 in
10:58 24.3 °F 14.1 °F 1011.7 in NE 3.7 mph 3.7 mph 53 % 0.0 in
11:03 24.4 °F 13.6 °F 1011.7 in ESE 5.8 mph 5.8 mph 51 % 0.0 in
11:08 24.7 °F 14.2 °F 1011.7 in WSW 3.9 mph 3.9 mph 52 % 0.0 in
11:13 25.5 °F 14.3 °F 1011.7 in SW 3.9 mph 3.9 mph 50 % 0.0 in
11:18 26.0 °F 14.8 °F 1012.8 in WSW 4.7 mph 4.7 mph 50 % 0.0 in
11:23 26.1 °F 14.6 °F 1012.8 in NNW 5.6 mph 5.6 mph 49 % 0.0 in
11:28 26.8 °F 15.2 °F 1012.8 in SSW 6.1 mph 6.1 mph 49 % 0.0 in
11:33 26.9 °F 14.9 °F 1011.7 in West 5.6 mph 5.6 mph 48 % 0.0 in
11:38 27.0 °F 14.7 °F 1011.7 in WSW 5.6 mph 5.6 mph 47 % 0.0 in
11:43 26.7 °F 14.4 °F 1011.7 in WSW 14.8 mph 14.8 mph 47 % 0.0 in
11:48 27.0 °F 14.1 °F 1011.7 in SW 5.6 mph 5.6 mph 45 % 0.0 in
11:53 27.2 °F 14.2 °F 1011.7 in West 5.6 mph 5.6 mph 45 % 0.0 in
11:58 27.4 °F 14.4 °F 1011.7 in SW 4.2 mph 4.2 mph 45 % 0.0 in
12:03 27.1 °F 13.4 °F 1010.7 in WSW 11.1 mph 11.1 mph 43 % 0.0 in
12:08 26.9 °F 13.3 °F 1010.7 in WNW 7.4 mph 7.4 mph 43 % 0.0 in
12:13 27.5 °F 13.8 °F 1010.7 in SSW 3.7 mph 3.7 mph 43 % 0.0 in
12:18 27.6 °F 13.9 °F 1010.7 in WSW 5.6 mph 5.6 mph 43 % 0.0 in
12:23 27.9 °F 13.8 °F 1010.7 in ESE 3.7 mph 3.9 mph 42 % 0.0 in
12:28 27.9 °F 13.8 °F 1010.7 in SW 7.4 mph 7.4 mph 42 % 0.0 in
12:33 27.8 °F 13.7 °F 1010.7 in WSW 8.7 mph 8.7 mph 42 % 0.0 in
12:38 27.8 °F 12.9 °F 1010.7 in SSW 11.1 mph 11.1 mph 40 % 0.0 in
12:43 28.1 °F 13.6 °F 1010.7 in SSW 10.3 mph 10.3 mph 41 % 0.0 in
12:48 28.5 °F 13.6 °F 1010.7 in WSW 5.8 mph 5.8 mph 40 % 0.0 in
12:53 28.2 °F 12.9 °F 1010.7 in ESE 3.7 mph 3.7 mph 39 % 0.0 in
12:54 28.1 °F 12.8 °F 1010.7 in ESE 3.7 mph 3.7 mph 39 % 0.0 in
12:59 28.1 °F 13.2 °F 1010.7 in West 6.1 mph 6.1 mph 40 % 0.0 in
13:04 28.7 °F 13.8 °F 1010.7 in West 9.3 mph 9.3 mph 40 % 0.0 in
13:09 28.8 °F 13.8 °F 1010.7 in SW 7.4 mph 7.4 mph 40 % 0.0 in
13:10 29.0 °F 13.7 °F 1010.7 in WSW 6.4 mph 6.4 mph 39 % 0.0 in
13:15 29.2 °F 13.4 °F 1010.7 in NW 7.4 mph 7.4 mph 38 % 0.0 in
13:20 28.6 °F 13.3 °F 1010.7 in NNW 5.6 mph 5.6 mph 39 % 0.0 in
13:25 28.4 °F 13.1 °F 1010.7 in SSE 5.8 mph 5.8 mph 39 % 0.0 in
13:30 28.4 °F 12.7 °F 1010.7 in NNW 3.7 mph 3.9 mph 38 % 0.0 in
13:35 28.2 °F 12.6 °F 1010.7 in NW 5.0 mph 5.0 mph 38 % 0.0 in
13:40 28.2 °F 12.6 °F 1010.7 in WNW 4.2 mph 4.2 mph 38 % 0.0 in
13:45 28.0 °F 12.3 °F 1010.7 in ESE 3.7 mph 3.7 mph 38 % 0.0 in
13:50 28.7 °F 13.4 °F 1010.7 in SW 7.4 mph 7.4 mph 39 % 0.0 in
13:55 29.2 °F 13.0 °F 1010.7 in SW 5.6 mph 5.6 mph 37 % 0.0 in
14:00 28.9 °F 12.7 °F 1010.7 in WSW 7.4 mph 7.4 mph 37 % 0.0 in
14:05 29.4 °F 12.8 °F 1010.7 in South 9.3 mph 9.3 mph 36 % 0.0 in
14:07 29.6 °F 12.9 °F 1010.7 in West 9.3 mph 9.3 mph 36 % 0.0 in
14:12 29.4 °F 12.3 °F 1010.7 in North 7.4 mph 7.4 mph 35 % 0.0 in
14:17 29.8 °F 13.1 °F 1010.7 in SW 13.0 mph 13.0 mph 36 % 0.0 in
14:22 29.4 °F 11.4 °F 1011.7 in ESE 11.1 mph 11.1 mph 33 % 0.0 in
14:27 30.1 °F 12.5 °F 1011.7 in West 9.3 mph 9.3 mph 34 % 0.0 in
14:32 30.1 °F 12.1 °F 1011.7 in WSW 7.4 mph 7.4 mph 33 % 0.0 in
14:37 29.4 °F 11.4 °F 1010.7 in SW 9.3 mph 9.3 mph 33 % 0.0 in
14:42 29.3 °F 11.3 °F 1010.7 in West 9.3 mph 9.3 mph 33 % 0.0 in
14:47 29.1 °F 11.2 °F 1010.7 in WNW 3.7 mph 3.7 mph 33 % 0.0 in
14:52 29.0 °F 11.1 °F 1011.7 in SSW 7.4 mph 7.4 mph 33 % 0.0 in
14:57 28.8 °F 11.4 °F 1011.7 in ENE 3.7 mph 3.7 mph 34 % 0.0 in
15:02 28.9 °F 11.4 °F 1011.7 in SW 3.7 mph 3.7 mph 34 % 0.0 in
15:07 28.7 °F 10.8 °F 1011.7 in NE 5.6 mph 5.6 mph 33 % 0.0 in
15:12 28.5 °F 11.1 °F 1011.7 in NW 5.6 mph 5.6 mph 34 % 0.0 in
15:17 28.5 °F 11.6 °F 1011.7 in ENE 11.1 mph 11.1 mph 35 % 0.0 in
15:22 27.6 °F 10.8 °F 1010.7 in ESE 31.5 mph 31.5 mph 35 % 0.0 in
15:27 26.6 °F 11.5 °F 1010.7 in NNE 32.0 mph 32.0 mph 39 % 0.0 in
15:32 25.3 °F 10.7 °F 1010.7 in East 13.0 mph 13.0 mph 40 % 0.0 in
15:37 24.8 °F 11.0 °F 1010.7 in ESE 16.9 mph 16.9 mph 42 % 0.0 in
15:42 24.6 °F 11.6 °F 1010.7 in East 20.1 mph 20.1 mph 44 % 0.0 in
15:47 24.7 °F 11.9 °F 1010.7 in ENE 13.0 mph 13.0 mph 45 % 0.0 in
15:52 24.5 °F 12.1 °F 1011.7 in East 20.9 mph 20.9 mph 46 % 0.0 in
15:57 24.2 °F 12.2 °F 1011.7 in ENE 16.7 mph 16.7 mph 47 % 0.0 in
16:02 23.9 °F 11.9 °F 1011.7 in NNE 13.0 mph 13.0 mph 47 % 0.0 in
16:07 24.1 °F 12.4 °F 1011.7 in NNW 16.7 mph 16.7 mph 48 % 0.0 in
16:12 24.3 °F 12.6 °F 1011.7 in NNE 20.4 mph 20.4 mph 48 % 0.0 in
16:17 24.4 °F 12.7 °F 1011.7 in East 16.1 mph 16.1 mph 48 % 0.0 in
16:22 24.2 °F 12.8 °F 1011.7 in East 21.2 mph 21.2 mph 49 % 0.0 in
16:27 24.2 °F 12.8 °F 1011.7 in NNE 14.8 mph 14.8 mph 49 % 0.0 in
16:32 24.0 °F 13.2 °F 1011.7 in NE 22.2 mph 22.2 mph 51 % 0.0 in
16:37 24.1 °F 13.3 °F 1011.7 in ENE 20.4 mph 20.4 mph 51 % 0.0 in
16:42 24.2 °F 13.7 °F 1011.7 in ENE 17.5 mph 17.5 mph 52 % 0.0 in
16:47 23.9 °F 13.4 °F 1011.7 in NNW 16.7 mph 16.7 mph 52 % 0.0 in
16:52 23.7 °F 13.6 °F 1011.7 in East 16.7 mph 16.7 mph 53 % 0.0 in
16:57 24.0 °F 13.8 °F 1011.7 in NNE 14.8 mph 14.8 mph 53 % 0.0 in
17:02 23.9 °F 14.0 °F 1011.7 in NE 16.7 mph 16.7 mph 54 % 0.0 in
17:07 23.7 °F 14.4 °F 1012.8 in ENE 14.8 mph 14.8 mph 56 % 0.0 in
17:12 23.5 °F 14.5 °F 1012.8 in ESE 16.7 mph 16.7 mph 57 % 0.0 in
17:17 23.4 °F 14.7 °F 1012.8 in ENE 16.7 mph 16.7 mph 58 % 0.0 in
17:22 23.6 °F 15.1 °F 1012.8 in East 16.7 mph 16.7 mph 59 % 0.0 in
17:27 23.6 °F 15.1 °F 1012.8 in ENE 14.8 mph 14.8 mph 59 % 0.0 in
17:32 23.4 °F 15.2 °F 1012.8 in East 14.8 mph 14.8 mph 60 % 0.0 in
17:37 23.2 °F 15.3 °F 1012.8 in North 24.1 mph 24.1 mph 61 % 0.0 in
17:42 23.1 °F 15.4 °F 1012.8 in ENE 20.4 mph 20.4 mph 62 % 0.0 in
17:47 22.8 °F 15.4 °F 1012.8 in ENE 24.1 mph 24.1 mph 63 % 0.0 in
17:52 22.9 °F 15.5 °F 1012.8 in ESE 16.7 mph 16.7 mph 63 % 0.0 in
17:57 22.8 °F 15.1 °F 1012.8 in East 14.8 mph 14.8 mph 62 % 0.0 in
18:02 22.7 °F 15.1 °F 1012.8 in East 24.1 mph 24.1 mph 62 % 0.0 in
18:07 22.4 °F 14.8 °F 1012.8 in ENE 14.8 mph 14.8 mph 62 % 0.0 in
18:12 22.5 °F 14.6 °F 1012.8 in ESE 16.7 mph 16.7 mph 61 % 0.0 in
18:17 22.3 °F 14.4 °F 1012.8 in East 17.5 mph 17.5 mph 61 % 0.0 in
18:22 22.1 °F 14.2 °F 1013.8 in East 24.1 mph 24.1 mph 61 % 0.0 in
18:27 22.2 °F 14.3 °F 1013.8 in ESE 12.6 mph 12.6 mph 61 % 0.0 in
18:32 22.2 °F 14.3 °F 1013.8 in SE 16.7 mph 16.7 mph 61 % 0.0 in
18:37 22.1 °F 14.2 °F 1013.8 in ENE 14.8 mph 14.8 mph 61 % 0.0 in
18:42 22.2 °F 14.3 °F 1013.8 in ESE 13.0 mph 13.0 mph 61 % 0.0 in
18:47 22.1 °F 14.2 °F 1013.8 in ENE 20.9 mph 20.9 mph 61 % 0.0 in
18:52 21.8 °F 14.2 °F 1013.8 in ESE 19.8 mph 19.8 mph 62 % 0.0 in
18:57 21.7 °F 14.3 °F 1013.8 in ESE 17.2 mph 17.2 mph 63 % 0.0 in
19:02 21.4 °F 14.3 °F 1013.8 in SE 22.2 mph 22.2 mph 64 % 0.0 in
19:07 21.2 °F 14.3 °F 1012.8 in ESE 15.8 mph 15.8 mph 65 % 0.0 in
19:12 21.3 °F 14.4 °F 1012.8 in ESE 18.5 mph 18.5 mph 65 % 0.0 in
19:15 18.9 °F 14.2 °F 1011.7 in SE 3.2 mph 3.2 mph 74 % 0.0 in
19:17 21.0 °F 14.4 °F 1012.8 in ESE 20.4 mph 20.4 mph 66 % 0.0 in
19:20 20.9 °F 14.3 °F 1012.8 in East 20.4 mph 20.4 mph 66 % 0.0 in
19:25 20.8 °F 14.4 °F 1012.8 in SE 16.7 mph 16.7 mph 67 % 0.0 in
19:30 20.8 °F 14.4 °F 1012.8 in ESE 20.4 mph 20.4 mph 67 % 0.0 in
19:35 20.8 °F 14.4 °F 1013.8 in NE 13.0 mph 13.0 mph 67 % 0.0 in
19:40 20.7 °F 14.3 °F 1013.8 in ESE 20.4 mph 20.4 mph 67 % 0.0 in
19:45 20.6 °F 14.3 °F 1013.8 in East 9.5 mph 9.5 mph 67 % 0.0 in
19:50 20.4 °F 14.1 °F 1013.8 in ESE 16.7 mph 16.7 mph 67 % 0.0 in
19:55 20.5 °F 14.4 °F 1013.8 in ESE 13.0 mph 13.0 mph 68 % 0.0 in
20:00 20.5 °F 14.4 °F 1013.8 in ESE 13.0 mph 13.0 mph 68 % 0.0 in
20:05 20.4 °F 14.3 °F 1013.8 in ESE 22.2 mph 22.2 mph 68 % 0.0 in
20:10 20.3 °F 14.2 °F 1013.8 in ENE 14.8 mph 14.8 mph 68 % 0.0 in
20:15 20.2 °F 14.1 °F 1013.8 in ESE 20.1 mph 20.1 mph 68 % 0.0 in
20:20 20.1 °F 14.2 °F 1014.8 in ESE 14.8 mph 14.8 mph 69 % 0.0 in
20:25 20.0 °F 14.1 °F 1014.8 in East 11.1 mph 11.1 mph 69 % 0.0 in
20:30 20.0 °F 14.1 °F 1014.8 in SE 12.2 mph 12.2 mph 69 % 0.0 in
20:35 20.0 °F 14.1 °F 1014.8 in ESE 18.3 mph 18.3 mph 69 % 0.0 in
20:40 19.9 °F 14.5 °F 1014.8 in ESE 14.8 mph 14.8 mph 71 % 0.0 in
20:45 19.9 °F 14.5 °F 1014.8 in ESE 5.6 mph 5.6 mph 71 % 0.0 in
20:50 19.9 °F 14.3 °F 1014.8 in ESE 11.1 mph 11.1 mph 70 % 0.0 in
20:55 19.8 °F 14.4 °F 1014.8 in SE 9.3 mph 9.3 mph 71 % 0.0 in
21:00 19.9 °F 14.5 °F 1014.8 in ESE 12.6 mph 12.6 mph 71 % 0.0 in
21:05 19.7 °F 14.3 °F 1014.8 in ESE 14.8 mph 14.8 mph 71 % 0.0 in
21:10 19.6 °F 14.4 °F 1014.8 in East 11.1 mph 11.1 mph 72 % 0.0 in
21:15 19.6 °F 14.4 °F 1014.8 in East 13.0 mph 13.0 mph 72 % 0.0 in
21:20 19.5 °F 14.3 °F 1015.8 in ESE 13.0 mph 13.0 mph 72 % 0.0 in
21:25 19.5 °F 14.3 °F 1015.8 in ENE 14.8 mph 14.8 mph 72 % 0.0 in
21:30 19.4 °F 14.2 °F 1015.8 in ENE 9.3 mph 9.3 mph 72 % 0.0 in
21:35 19.4 °F 14.4 °F 1015.8 in ESE 9.3 mph 9.3 mph 73 % 0.0 in
21:40 19.3 °F 14.3 °F 1015.8 in ESE 14.8 mph 14.8 mph 73 % 0.0 in
21:45 19.3 °F 14.3 °F 1015.8 in East 9.3 mph 9.3 mph 73 % 0.0 in
21:50 19.3 °F 14.3 °F 1015.8 in SSE 13.0 mph 13.0 mph 73 % 0.0 in
21:52 19.3 °F 14.3 °F 1015.8 in East 11.1 mph 11.1 mph 73 % 0.0 in
21:55 17.3 °F 13.2 °F 1017.8 in WSW 1.6 mph 3.2 mph 77 % 0.0 in
21:57 19.3 °F 14.3 °F 1015.8 in ESE 7.4 mph 7.4 mph 73 % 0.0 in
22:02 19.3 °F 14.6 °F 1015.8 in SSE 7.4 mph 7.4 mph 74 % 0.0 in
22:05 17.3 °F 13.2 °F 1017.8 in WSW 1.6 mph 3.2 mph 77 % 0.0 in
22:07 19.3 °F 14.6 °F 1015.8 in ESE 9.3 mph 9.3 mph 74 % 0.0 in
22:12 19.3 °F 14.6 °F 1015.8 in SSW 7.4 mph 7.4 mph 74 % 0.0 in
22:15 17.3 °F 13.4 °F 1017.8 in Calm   3.2 mph 78 % 0.0 in
22:17 19.3 °F 14.3 °F 1015.8 in SSE 13.0 mph 13.0 mph 73 % 0.0 in
22:22 19.2 °F 14.4 °F 1015.8 in ESE 5.6 mph 5.6 mph 74 % 0.0 in
22:25 17.3 °F 13.4 °F 1017.8 in West 1.6 mph 1.6 mph 78 % 0.0 in
22:27 19.2 °F 14.4 °F 1015.8 in ESE 5.6 mph 5.6 mph 74 % 0.0 in
22:32 19.2 °F 14.4 °F 1015.8 in ENE 7.4 mph 7.4 mph 74 % 0.0 in
22:35 17.3 °F 13.6 °F 1017.8 in West 1.6 mph 1.6 mph 79 % 0.0 in
22:37 19.1 °F 14.3 °F 1015.8 in ESE 7.4 mph 7.4 mph 74 % 0.0 in
22:42 19.1 °F 14.3 °F 1015.8 in ESE 9.3 mph 9.3 mph 74 % 0.0 in
22:45 17.4 °F 13.7 °F 1017.8 in Calm   1.6 mph 79 % 0.0 in
22:47 19.1 °F 14.3 °F 1015.8 in ESE 13.0 mph 13.0 mph 74 % 0.0 in
22:52 19.0 °F 14.3 °F 1016.8 in ESE 6.4 mph 6.4 mph 74 % 0.0 in
22:55 17.3 °F 13.6 °F 1017.8 in WSW 3.2 mph 3.2 mph 79 % 0.0 in
22:57 19.0 °F 14.3 °F 1016.8 in ESE 8.7 mph 8.7 mph 74 % 0.0 in
23:02 19.0 °F 14.3 °F 1016.8 in ENE 9.3 mph 9.3 mph 74 % 0.0 in
23:05 17.1 °F 13.6 °F 1017.8 in Calm   3.2 mph 80 % 0.0 in
23:07 19.0 °F 14.3 °F 1016.8 in ESE 9.3 mph 9.3 mph 74 % 0.0 in
23:12 19.0 °F 14.3 °F 1016.8 in SE 7.4 mph 7.4 mph 74 % 0.0 in
23:15 17.1 °F 13.6 °F 1017.8 in Calm   3.2 mph 80 % 0.0 in
23:17 19.0 °F 14.3 °F 1016.8 in ESE 9.0 mph 9.0 mph 74 % 0.0 in
23:22 19.0 °F 14.3 °F 1016.8 in ESE 11.1 mph 11.1 mph 74 % 0.0 in
23:25 17.1 °F 13.6 °F 1018.8 in Calm   1.6 mph 80 % 0.0 in
23:27 18.9 °F 14.4 °F 1016.8 in ENE 7.4 mph 7.4 mph 75 % 0.0 in
23:32 18.9 °F 14.4 °F 1016.8 in ESE 9.3 mph 9.3 mph 75 % 0.0 in
23:35 17.0 °F 13.7 °F 1018.8 in Calm     81 % 0.0 in
23:37 18.9 °F 14.4 °F 1016.8 in NNE 5.6 mph 5.6 mph 75 % 0.0 in
23:42 19.0 °F 14.1 °F 1016.8 in SE 3.7 mph 3.7 mph 73 % 0.0 in
23:45 17.1 °F 13.8 °F 1018.8 in Calm     81 % 0.0 in
23:47 19.0 °F 14.3 °F 1016.8 in ESE 7.4 mph 7.4 mph 74 % 0.0 in
23:52 19.0 °F 14.1 °F 1017.8 in ESE 3.7 mph 3.7 mph 73 % 0.0 in
23:55 17.0 °F 13.7 °F 1018.8 in Calm     81 % 0.0 in
23:57 19.0 °F 14.1 °F 1017.8 in East 5.6 mph 5.6 mph 73 % 0.0 in
23:58 19.0 °F 14.1 °F 1017.8 in South 5.6 mph 5.6 mph 73 % 0.0 in
Meteo Sesrovires
Elogis d' Weather Underground - 1.5 mb

Guio original per  Jim McMurry - jmcmurry@mwt.net Adaptat per a la plantilla per  Wim van der Kuil - Leuven-Template.eu

Trobareu la nostra informacio del temps tambe a:

Weather Underground

AWEKAS